Terminal Aerodrome Forecast
Issued by NWS New Orleans/Baton Rouge, LA

Current Version | Previous Version | Text Only | Print | Product List | Glossary On
Versions: 1 2 3 4 5 6 7 8 9 10 11 12 13 14 15 16 17 18 19 20 21 22 23 24 25 26 27 28
000
FTUS44 KLIX 251726
TAFNEW
TAF
KNEW 251726Z 2518/2618 32013KT P6SM FEW025
      TEMPO 2518/2521 4SM SHRA BKN060
     FM252100 31006KT P6SM SCT090
     FM260000 34007KT P6SM BKN200
     FM260900 29007KT P6SM FEW060 SCT200=

USA.gov is the U.S. government's official web portal to all federal, state and local government web resources and services.